Time;durP1;ratioP1;P1;durP2;ratioP2;P2;SDS_P1;SDS_P2;PMS_P1;PMS_P2;Temp;Humidity;BMP_temperature;BMP_pressure;BME280_temperature;BME280_humidity;BME280_pressure;Samples;Min_cycle;Max_cycle;Signal;HPM_P1;HPM_P2
2022/12/31 00:01:20;;;;;;;18.15;4.85;;;12.00;99.90;;;;;;5079037;28;20044;-77
2022/12/31 00:03:46;;;;;;;;;;;11.90;99.90;;;;;;5077877;28;20044;-81
2022/12/31 00:06:16;;;;;;;19.63;4.90;;;11.90;99.90;;;;;;5075917;28;20364;-83
2022/12/31 00:08:43;;;;;;;18.55;5.53;;;11.80;99.90;;;;;;5076402;28;20106;-82
2022/12/31 00:11:09;;;;;;;21.85;5.18;;;11.70;99.90;;;;;;5076457;28;20045;-80
2022/12/31 00:13:35;;;;;;;23.58;6.22;;;11.70;99.90;;;;;;5075415;28;20492;-84
2022/12/31 00:16:10;;;;;;;21.67;5.78;;;11.70;99.90;;;;;;5076738;28;20135;-79
2022/12/31 00:18:36;;;;;;;27.23;6.28;;;11.70;99.90;;;;;;5076542;28;20048;-80
2022/12/31 00:21:08;;;;;;;24.33;5.07;;;11.70;99.90;;;;;;5077130;28;20048;-81
2022/12/31 00:23:35;;;;;;;20.92;5.32;;;11.70;99.90;;;;;;5075407;28;20049;-79
2022/12/31 00:26:03;;;;;;;22.65;5.00;;;11.70;99.90;;;;;;5075341;28;20052;-79
2022/12/31 00:28:28;;;;;;;23.20;5.32;;;11.70;99.90;;;;;;5076682;28;20075;-81
2022/12/31 00:30:54;;;;;;;17.15;5.10;;;11.70;99.90;;;;;;5041706;28;20504;-81
2022/12/31 00:33:20;;;;;;;18.15;4.93;;;11.60;99.90;;;;;;5059612;28;20040;-79
2022/12/31 00:35:45;;;;;;;23.50;6.05;;;11.60;99.90;;;;;;5076579;28;20519;-80
2022/12/31 00:38:11;;;;;;;26.05;5.85;;;11.70;99.90;;;;;;5077582;28;20082;-79
2022/12/31 00:40:37;;;;;;;21.10;5.15;;;11.60;99.90;;;;;;5076223;28;20105;-79
2022/12/31 00:43:03;;;;;;;20.27;4.88;;;11.60;99.90;;;;;;5075255;28;20140;-80
2022/12/31 00:45:28;;;;;;;20.85;5.47;;;11.70;99.90;;;;;;5075477;28;20067;-78
2022/12/31 00:47:54;;;;;;;20.92;6.97;;;11.70;99.90;;;;;;5076019;28;20044;-81
2022/12/31 00:50:20;;;;;;;19.08;5.68;;;11.70;99.90;;;;;;5087829;28;20036;-82
2022/12/31 00:52:45;;;;;;;18.30;5.82;;;11.70;99.90;;;;;;5091940;28;20112;-80
2022/12/31 00:55:11;;;;;;;18.52;5.93;;;11.70;99.90;;;;;;5070243;28;20049;-78
2022/12/31 00:57:37;;;;;;;17.55;5.13;;;11.70;99.90;;;;;;5087838;28;20087;-79
2022/12/31 01:00:06;;;;;;;18.90;5.35;;;11.60;99.90;;;;;;5086272;28;20502;-77
2022/12/31 01:02:31;;;;;;;16.85;5.05;;;11.60;99.90;;;;;;5085007;28;20081;-77
2022/12/31 01:04:57;;;;;;;17.48;4.88;;;11.60;99.90;;;;;;5084631;28;20120;-78
2022/12/31 01:07:23;;;;;;;19.55;5.13;;;11.60;99.90;;;;;;5086387;28;20385;-82
2022/12/31 01:09:48;;;;;;;16.73;5.25;;;11.60;99.90;;;;;;5084215;28;20049;-78
2022/12/31 01:12:14;;;;;;;19.42;5.60;;;11.60;99.90;;;;;;5081637;28;20531;-78
2022/12/31 01:14:40;;;;;;;15.15;5.43;;;11.70;99.90;;;;;;5079844;28;20044;-77
2022/12/31 01:17:06;;;;;;;16.08;4.50;;;11.60;99.90;;;;;;5078710;28;20048;-77
2022/12/31 01:19:32;;;;;;;16.25;5.03;;;11.60;99.90;;;;;;5075501;28;20091;-78
2022/12/31 01:21:58;;;;;;;16.27;4.40;;;11.60;99.90;;;;;;5076785;28;20055;-81
2022/12/31 01:24:23;;;;;;;14.15;4.72;;;11.60;99.90;;;;;;5075034;28;20036;-81
2022/12/31 01:26:50;;;;;;;14.38;4.30;;;11.60;99.90;;;;;;5076497;28;20093;-79
2022/12/31 01:29:16;;;;;;;15.13;4.15;;;11.60;99.90;;;;;;5076228;28;20056;-79
2022/12/31 01:31:41;;;;;;;18.40;3.55;;;11.50;99.90;;;;;;5075957;28;20041;-78
2022/12/31 01:34:07;;;;;;;13.35;3.58;;;11.50;99.90;;;;;;5075303;28;20132;-77
2022/12/31 01:36:35;;;;;;;9.57;3.85;;;11.50;99.90;;;;;;5075511;28;20374;-75
2022/12/31 01:39:04;;;;;;;12.82;3.58;;;11.50;99.90;;;;;;5058517;28;20045;-76
2022/12/31 01:41:35;;;;;;;12.98;3.90;;;11.50;99.90;;;;;;5076131;28;20040;-79
2022/12/31 01:44:24;;;;;;;17.92;3.53;;;11.50;99.90;;;;;;5058288;28;20048;-77
2022/12/31 01:47:02;;;;;;;10.52;2.90;;;11.40;99.90;;;;;;5068623;28;20096;-81
2022/12/31 01:49:32;;;;;;;13.38;2.70;;;11.50;99.90;;;;;;5074770;28;20056;-81
2022/12/31 01:52:03;;;;;;;10.50;2.25;;;11.40;99.90;;;;;;5075829;28;20063;-79
2022/12/31 01:54:33;;;;;;;11.40;1.92;;;11.40;99.90;;;;;;5075299;28;20044;-77
2022/12/31 01:56:59;;;;;;;9.52;2.10;;;11.40;99.90;;;;;;5075696;28;20052;-80
2022/12/31 01:59:27;;;;;;;7.00;1.73;;;11.40;99.90;;;;;;5076632;28;20052;-78
2022/12/31 02:01:53;;;;;;;7.72;1.67;;;11.40;99.90;;;;;;5075662;28;20048;-77
2022/12/31 02:04:22;;;;;;;6.83;1.30;;;11.30;99.90;;;;;;5074529;28;20050;-78
2022/12/31 02:07:00;;;;;;;8.98;1.58;;;11.30;99.90;;;;;;5075672;28;20306;-79
2022/12/31 02:09:26;;;;;;;5.75;1.75;;;11.30;99.90;;;;;;5075509;28;20135;-78
2022/12/31 02:11:52;;;;;;;5.40;0.90;;;11.30;99.90;;;;;;5075339;28;20052;-77
2022/12/31 02:14:35;;;;;;;7.35;1.10;;;11.20;99.90;;;;;;5074363;28;20110;-77
2022/12/31 02:17:06;;;;;;;11.60;1.40;;;11.20;99.90;;;;;;5075744;28;20044;-77
2022/12/31 02:19:41;;;;;;;6.10;1.00;;;11.10;99.90;;;;;;5074775;28;20127;-79
2022/12/31 02:22:35;;;;;;;6.60;1.08;;;11.10;99.90;;;;;;5076821;28;20449;-78
2022/12/31 02:25:12;;;;;;;6.00;1.40;;;11.10;99.90;;;;;;5074718;28;20091;-80
2022/12/31 02:27:41;;;;;;;5.57;1.27;;;11.10;99.90;;;;;;5074145;28;20095;-80
2022/12/31 02:30:10;;;;;;;5.45;1.20;;;11.00;99.90;;;;;;5075478;28;20370;-79
2022/12/31 02:32:54;;;;;;;6.38;1.33;;;11.00;99.90;;;;;;5074937;28;20044;-80
2022/12/31 02:35:30;;;;;;;5.72;1.45;;;11.00;99.90;;;;;;5074501;28;20098;-78
2022/12/31 02:38:10;;;;;;;10.95;1.35;;;11.00;99.90;;;;;;5074288;28;20044;-75
2022/12/31 02:40:37;;;;;;;9.75;1.73;;;11.00;99.90;;;;;;5072932;28;20040;-75
2022/12/31 02:43:03;;;;;;;7.45;1.50;;;11.00;99.90;;;;;;5039461;28;20131;-74
2022/12/31 02:45:35;;;;;;;11.52;2.10;;;11.00;99.90;;;;;;5072878;28;20098;-75
2022/12/31 02:48:07;;;;;;;5.25;1.67;;;11.00;99.90;;;;;;5072958;28;20435;-73
2022/12/31 02:50:56;;;;;;;7.95;1.85;;;11.00;99.90;;;;;;5073851;28;20045;-74
2022/12/31 02:53:33;;;;;;;8.73;1.75;;;11.00;99.90;;;;;;5073840;28;20060;-75
2022/12/31 02:56:09;;;;;;;9.73;2.33;;;11.00;99.90;;;;;;5074251;28;20052;-75
2022/12/31 03:04:31;;;;;;;10.07;2.00;;;11.00;99.90;;;;;;5073054;28;20087;-75
2022/12/31 03:07:12;;;;;;;14.48;2.90;;;11.00;99.90;;;;;;5073783;28;20105;-76
2022/12/31 03:09:38;;;;;;;13.45;2.63;;;11.00;99.90;;;;;;5073695;28;20138;-75
2022/12/31 03:14:50;;;;;;;16.10;3.67;;;11.00;99.90;;;;;;5072926;28;20061;-75
2022/12/31 03:17:16;;;;;;;12.30;4.07;;;10.90;99.90;;;;;;5073357;28;20461;-76
2022/12/31 03:22:26;;;;;;;18.55;4.43;;;10.90;99.90;;;;;;5073595;28;20423;-77
2022/12/31 03:27:51;;;;;;;11.63;3.90;;;10.90;99.90;;;;;;5073575;28;20131;-76
2022/12/31 03:30:18;;;;;;;16.75;4.30;;;10.90;99.90;;;;;;5073476;28;20462;-76
2022/12/31 03:32:45;;;;;;;14.85;4.03;;;10.90;99.90;;;;;;5072867;28;20048;-76
2022/12/31 03:35:12;;;;;;;;;;;10.90;99.90;;;;;;5074322;28;20045;-76
2022/12/31 03:37:39;;;;;;;15.23;4.32;;;10.90;99.90;;;;;;5056428;28;19925;-76
2022/12/31 03:40:07;;;;;;;9.95;3.70;;;10.90;99.90;;;;;;5073099;28;20082;-77
2022/12/31 03:42:33;;;;;;;13.52;3.47;;;11.00;99.90;;;;;;5073068;28;20520;-75
2022/12/31 03:44:58;;;;;;;10.75;3.25;;;11.00;99.90;;;;;;5073500;28;20131;-74
2022/12/31 03:47:24;;;;;;;11.52;3.22;;;11.00;99.90;;;;;;5074556;28;20124;-75
2022/12/31 03:49:50;;;;;;;11.55;3.45;;;11.00;99.90;;;;;;5073165;28;20053;-75
2022/12/31 03:52:16;;;;;;;11.60;3.33;;;11.10;99.90;;;;;;5072471;28;20067;-75
2022/12/31 03:54:42;;;;;;;14.48;3.03;;;11.10;99.90;;;;;;5072985;28;20177;-75
2022/12/31 03:57:08;;;;;;;16.88;3.35;;;11.10;99.90;;;;;;5072339;28;20127;-74
2022/12/31 03:59:34;;;;;;;11.23;3.28;;;11.10;99.90;;;;;;5055552;28;20464;-75
2022/12/31 04:01:59;;;;;;;11.73;2.97;;;11.10;99.90;;;;;;5072455;28;20083;-75
2022/12/31 04:04:25;;;;;;;18.73;3.60;;;11.00;99.90;;;;;;5107188;28;20044;-77
2022/12/31 04:06:51;;;;;;;11.30;3.17;;;11.00;99.90;;;;;;5072608;28;20045;-73
2022/12/31 04:09:17;;;;;;;11.15;2.92;;;11.00;99.90;;;;;;5072539;28;20131;-74
2022/12/31 04:11:42;;;;;;;11.30;3.40;;;11.00;99.90;;;;;;5055708;28;20389;-74
2022/12/31 04:14:08;;;;;;;14.02;3.20;;;11.00;99.90;;;;;;5073718;28;20427;-75
2022/12/31 04:16:34;;;;;;;11.48;2.92;;;11.00;99.90;;;;;;5074711;28;20048;-76
2022/12/31 04:19:00;;;;;;;12.98;2.83;;;11.00;99.90;;;;;;5076354;28;20044;-76
2022/12/31 04:21:25;;;;;;;14.50;3.05;;;11.10;99.90;;;;;;5059512;28;20091;-74
2022/12/31 04:23:51;;;;;;;11.95;2.65;;;11.00;99.90;;;;;;5076655;28;20052;-75
2022/12/31 04:26:17;;;;;;;13.77;2.60;;;11.00;99.90;;;;;;5076387;28;20477;-76
2022/12/31 04:28:43;;;;;;;15.27;2.50;;;11.00;99.90;;;;;;5077813;28;20129;-76
2022/12/31 04:31:10;;;;;;;10.15;2.28;;;10.90;99.90;;;;;;5075694;28;20040;-75
2022/12/31 04:33:36;;;;;;;9.13;2.40;;;10.90;99.90;;;;;;5076824;28;20052;-75
2022/12/31 04:36:07;;;;;;;16.58;2.78;;;10.90;99.90;;;;;;5059817;28;20056;-73
2022/12/31 04:38:33;;;;;;;16.98;3.00;;;10.90;99.90;;;;;;5061102;28;20405;-75
2022/12/31 04:41:18;;;;;;;11.77;2.22;;;10.90;99.90;;;;;;5077647;28;20040;-74
2022/12/31 04:43:49;;;;;;;11.65;2.83;;;10.80;99.90;;;;;;5062920;28;20123;-76
2022/12/31 04:46:17;;;;;;;15.10;2.67;;;10.80;99.90;;;;;;5060274;28;20073;-74
2022/12/31 04:48:43;;;;;;;13.75;3.03;;;10.80;99.90;;;;;;5076900;28;20063;-74
2022/12/31 04:51:09;;;;;;;13.90;2.72;;;10.80;99.90;;;;;;5110574;28;20044;-73
2022/12/31 04:53:35;;;;;;;11.25;2.40;;;10.70;99.90;;;;;;5076514;28;20045;-74
2022/12/31 04:56:01;;;;;;;12.52;2.97;;;10.70;99.90;;;;;;5076581;28;20117;-72
2022/12/31 04:58:27;;;;;;;10.57;2.63;;;10.80;99.90;;;;;;5078085;28;20048;-75
2022/12/31 05:00:54;;;;;;;10.02;2.72;;;10.80;99.90;;;;;;5078141;28;20400;-74
2022/12/31 05:03:21;;;;;;;15.00;2.75;;;10.80;99.90;;;;;;5061372;28;20162;-75
2022/12/31 05:05:48;;;;;;;17.23;4.63;;;10.80;99.90;;;;;;5078442;28;20048;-75
2022/12/31 05:08:16;;;;;;;19.38;4.30;;;10.80;99.90;;;;;;5078408;28;20490;-75
2022/12/31 05:10:44;;;;;;;21.35;5.20;;;10.80;99.90;;;;;;5077156;28;20371;-74
2022/12/31 05:13:10;;;;;;;18.40;5.13;;;10.80;99.90;;;;;;5076804;28;20051;-74
2022/12/31 05:15:36;;;;;;;21.15;6.20;;;10.80;99.90;;;;;;5078725;28;20048;-73
2022/12/31 05:18:02;;;;;;;23.92;6.63;;;10.80;99.90;;;;;;5078127;28;20040;-74
2022/12/31 05:20:28;;;;;;;29.00;7.20;;;10.90;99.90;;;;;;5076992;28;20044;-74
2022/12/31 05:22:54;;;;;;;28.58;8.88;;;10.90;99.90;;;;;;5078476;28;20552;-74
2022/12/31 05:25:19;;;;;;;32.10;7.55;;;10.90;99.90;;;;;;5078089;28;20100;-73
2022/12/31 05:27:45;;;;;;;24.55;7.22;;;10.90;99.90;;;;;;5076137;28;20076;-74
2022/12/31 05:30:11;;;;;;;24.77;7.70;;;10.90;99.90;;;;;;5076272;28;20473;-73
2022/12/31 05:32:38;;;;;;;29.20;8.95;;;10.90;99.90;;;;;;5059019;28;20055;-74
2022/12/31 05:35:04;;;;;;;24.52;8.15;;;10.90;99.90;;;;;;5076110;28;20047;-73
2022/12/31 05:37:30;;;;;;;28.60;9.30;;;10.90;99.90;;;;;;5076605;28;20044;-74
2022/12/31 05:39:56;;;;;;;27.10;7.68;;;10.90;99.90;;;;;;5060523;28;20050;-73
2022/12/31 05:42:22;;;;;;;22.83;6.97;;;10.90;99.90;;;;;;5059843;28;20044;-75
2022/12/31 05:44:48;;;;;;;26.58;6.90;;;10.90;99.90;;;;;;5076924;28;20044;-73
2022/12/31 05:47:15;;;;;;;21.95;7.05;;;10.90;99.90;;;;;;5076546;28;20392;-74
2022/12/31 05:49:41;;;;;;;23.17;6.40;;;10.90;99.90;;;;;;5075513;28;20048;-73
2022/12/31 05:52:09;;;;;;;21.90;6.97;;;10.80;99.90;;;;;;5108729;28;20052;-73
2022/12/31 05:54:35;;;;;;;22.90;6.45;;;10.90;99.90;;;;;;5075152;28;20045;-73
2022/12/31 05:57:02;;;;;;;23.35;5.95;;;10.90;99.90;;;;;;5074767;28;20055;-75
2022/12/31 05:59:29;;;;;;;17.75;4.85;;;10.90;99.90;;;;;;5075379;28;20412;-74
2022/12/31 06:01:55;;;;;;;19.88;5.30;;;10.90;99.90;;;;;;5075381;28;20048;-76
2022/12/31 06:04:20;;;;;;;15.13;5.30;;;10.90;99.90;;;;;;5074307;28;20048;-76
2022/12/31 06:06:46;;;;;;;18.63;4.80;;;10.90;99.90;;;;;;5075560;28;20052;-73
2022/12/31 06:09:13;;;;;;;17.50;4.75;;;10.90;99.90;;;;;;5076436;28;20049;-74
2022/12/31 06:11:39;;;;;;;15.82;5.25;;;10.80;99.90;;;;;;5075241;28;20040;-74
2022/12/31 06:14:04;;;;;;;15.15;5.00;;;10.80;99.90;;;;;;5074427;28;20045;-73
2022/12/31 06:16:30;;;;;;;19.10;5.43;;;10.80;99.90;;;;;;5057828;28;20074;-74
2022/12/31 06:18:56;;;;;;;22.60;5.57;;;10.80;99.90;;;;;;5075253;28;20197;-74
2022/12/31 06:21:21;;;;;;;18.05;4.75;;;10.80;99.90;;;;;;5075395;28;20131;-75
2022/12/31 06:23:48;;;;;;;17.52;4.70;;;10.80;99.90;;;;;;5075308;28;20139;-75
2022/12/31 06:26:15;;;;;;;21.37;5.93;;;10.80;99.90;;;;;;5075975;28;20093;-75
2022/12/31 06:28:41;;;;;;;;;;;10.80;99.90;;;;;;5074698;28;20275;-74
2022/12/31 06:31:10;;;;;;;16.63;3.93;;;10.80;99.90;;;;;;5075076;28;20009;-74
2022/12/31 06:33:36;;;;;;;15.20;4.00;;;10.80;99.90;;;;;;5074303;28;20389;-75
2022/12/31 06:36:04;;;;;;;19.17;3.88;;;10.80;99.90;;;;;;5076327;28;20050;-73
2022/12/31 06:38:32;;;;;;;16.02;4.07;;;10.80;99.90;;;;;;5074699;28;20048;-73
2022/12/31 06:41:02;;;;;;;17.48;3.88;;;10.80;99.90;;;;;;5075526;28;20056;-74
2022/12/31 06:43:28;;;;;;;17.30;4.25;;;10.80;99.90;;;;;;5076546;28;20091;-75
2022/12/31 06:45:54;;;;;;;14.13;4.20;;;10.80;99.90;;;;;;5058660;28;20083;-75
2022/12/31 06:48:20;;;;;;;13.68;3.72;;;10.80;99.90;;;;;;5074654;28;20053;-74
2022/12/31 06:50:46;;;;;;;12.70;3.40;;;10.80;99.90;;;;;;5074659;28;20047;-75
2022/12/31 06:53:12;;;;;;;12.52;3.63;;;10.70;99.90;;;;;;5058150;28;20190;-75
2022/12/31 06:55:38;;;;;;;14.93;3.28;;;10.80;99.90;;;;;;5075834;28;20076;-74
2022/12/31 06:58:04;;;;;;;13.23;3.40;;;10.70;99.90;;;;;;5074674;28;20131;-74
2022/12/31 07:00:30;;;;;;;14.93;4.40;;;10.80;99.90;;;;;;5075343;28;20082;-74
2022/12/31 07:03:18;;;;;;;11.95;3.20;;;10.70;99.90;;;;;;5074595;28;20040;-74
2022/12/31 07:05:55;;;;;;;18.48;3.75;;;10.80;99.90;;;;;;5074731;28;20120;-75
2022/12/31 07:08:41;;;;;;;13.50;3.20;;;10.80;99.90;;;;;;5075377;28;20487;-73
2022/12/31 07:11:27;;;;;;;10.70;2.80;;;10.80;99.90;;;;;;5074880;28;20075;-75
2022/12/31 07:14:21;;;;;;;12.68;3.13;;;10.80;99.90;;;;;;5075260;28;20105;-75
2022/12/31 07:17:06;;;;;;;13.32;3.30;;;10.80;99.90;;;;;;5070335;28;20164;-73
2022/12/31 07:19:38;;;;;;;13.20;3.20;;;10.90;99.90;;;;;;5076571;28;20389;-75
2022/12/31 07:22:04;;;;;;;13.02;3.17;;;10.90;99.90;;;;;;5076477;28;20048;-74
2022/12/31 07:24:30;;;;;;;14.13;3.40;;;11.00;99.90;;;;;;5073903;28;20091;-74
2022/12/31 07:27:17;;;;;;;17.35;3.67;;;11.00;99.90;;;;;;5073979;28;20086;-72
2022/12/31 07:29:43;;;;;;;14.25;3.72;;;11.00;99.90;;;;;;5074192;28;20040;-72
2022/12/31 07:32:17;;;;;;;16.65;4.15;;;11.00;99.90;;;;;;5073319;28;20489;-74
2022/12/31 07:34:49;;;;;;;15.57;4.03;;;11.00;99.90;;;;;;5056431;28;20063;-74
2022/12/31 07:37:33;;;;;;;13.75;3.80;;;11.00;99.90;;;;;;5073726;28;20410;-76
2022/12/31 07:40:29;;;;;;;20.23;4.60;;;11.00;99.90;;;;;;5056413;28;20074;-75
2022/12/31 07:42:54;;;;;;;19.77;4.30;;;11.00;99.90;;;;;;5073351;28;20173;-72
2022/12/31 07:45:33;;;;;;;16.13;4.32;;;11.00;99.90;;;;;;5073625;28;20473;-77
2022/12/31 07:47:59;;;;;;;19.70;5.00;;;11.00;99.90;;;;;;5072794;28;20057;-79
2022/12/31 07:50:25;;;;;;;20.45;5.22;;;11.10;99.90;;;;;;5072652;28;20055;-77
2022/12/31 07:52:51;;;;;;;21.08;5.40;;;11.10;99.90;;;;;;5076893;28;20066;-75
2022/12/31 07:55:17;;;;;;;20.00;4.57;;;11.10;99.90;;;;;;5076647;28;20059;-73
2022/12/31 07:58:04;;;;;;;18.45;5.47;;;11.10;99.90;;;;;;5076265;28;20044;-73
2022/12/31 08:00:30;;;;;;;18.92;4.45;;;11.10;99.90;;;;;;5077451;28;20048;-72
2022/12/31 08:03:02;;;;;;;16.73;4.10;;;11.10;99.90;;;;;;5077793;28;20548;-74
2022/12/31 08:05:51;;;;;;;19.15;5.13;;;11.10;99.90;;;;;;5077691;28;20109;-75
2022/12/31 08:08:47;;;;;;;20.25;4.85;;;11.20;99.90;;;;;;5060500;28;20056;-75
2022/12/31 08:11:40;;;;;;;19.77;4.75;;;11.30;99.90;;;;;;5077210;28;20158;-73
2022/12/31 08:14:10;;;;;;;16.48;4.70;;;11.30;99.90;;;;;;5076577;28;20052;-72
2022/12/31 08:16:36;;;;;;;15.93;4.72;;;11.40;99.90;;;;;;5077599;28;20037;-74
2022/12/31 08:19:02;;;;;;;21.55;4.47;;;11.40;99.90;;;;;;5076914;28;20051;-74
2022/12/31 08:22:07;;;;;;;16.35;4.72;;;11.50;99.90;;;;;;5076772;28;20080;-74
2022/12/31 08:25:07;;;;;;;16.27;4.63;;;11.60;99.90;;;;;;5065069;28;20052;-71
2022/12/31 08:28:03;;;;;;;16.02;5.38;;;11.60;99.90;;;;;;5069882;28;20127;-72
2022/12/31 08:30:55;;;;;;;14.20;4.13;;;11.70;99.90;;;;;;5075831;28;20076;-77
2022/12/31 08:33:30;;;;;;;10.93;3.65;;;11.80;99.90;;;;;;5077273;28;20132;-72
2022/12/31 08:36:19;;;;;;;10.18;3.15;;;11.80;99.90;;;;;;5075137;28;20174;-75
2022/12/31 08:39:03;;;;;;;13.35;3.97;;;11.90;99.90;;;;;;5051827;28;20068;-73
2022/12/31 08:41:46;;;;;;;10.23;3.45;;;11.90;99.90;;;;;;5075753;28;20044;-74
2022/12/31 08:44:51;;;;;;;14.73;4.70;;;11.90;99.90;;;;;;5076807;28;20127;-72
2022/12/31 08:47:49;;;;;;;11.23;3.30;;;12.00;99.90;;;;;;5076212;28;20037;-75
2022/12/31 08:50:16;;;;;;;11.00;3.67;;;12.10;99.90;;;;;;5049557;28;20059;-75
2022/12/31 08:52:43;;;;;;;12.07;3.78;;;12.20;99.90;;;;;;5058349;28;20060;-73
2022/12/31 08:55:17;;;;;;;10.63;3.38;;;12.20;99.90;;;;;;5075884;28;20083;-73
2022/12/31 08:58:17;;;;;;;11.38;3.30;;;12.20;99.90;;;;;;5074717;28;20136;-74
2022/12/31 09:00:43;;;;;;;9.15;2.70;;;12.30;99.90;;;;;;5110028;28;20049;-73
2022/12/31 09:03:14;;;;;;;10.15;2.90;;;12.30;99.90;;;;;;5074520;28;20036;-75
2022/12/31 09:06:05;;;;;;;9.88;2.63;;;12.40;99.90;;;;;;5075973;28;20089;-74
2022/12/31 09:08:47;;;;;;;10.65;2.10;;;12.50;99.90;;;;;;5075750;28;20090;-72
2022/12/31 09:11:16;;;;;;;6.30;1.83;;;12.50;99.90;;;;;;5075292;28;20048;-74
2022/12/31 09:14:16;;;;;;;7.75;1.90;;;12.50;99.90;;;;;;5058147;28;20132;-76
2022/12/31 09:16:54;;;;;;;5.32;1.30;;;12.50;99.90;;;;;;5076780;28;20049;-74
2022/12/31 09:19:20;;;;;;;5.07;1.10;;;12.60;99.90;;;;;;5076370;28;20110;-74
2022/12/31 09:21:46;;;;;;;5.30;1.20;;;12.60;99.90;;;;;;5075416;28;20443;-72
2022/12/31 09:24:13;;;;;;;5.72;1.17;;;12.60;99.90;;;;;;5057821;28;20052;-72
2022/12/31 09:26:45;;;;;;;8.55;1.05;;;12.60;99.90;;;;;;5075409;28;20055;-74
2022/12/31 09:29:50;;;;;;;4.60;0.65;;;12.60;99.90;;;;;;5076245;28;20102;-74
2022/12/31 09:32:39;;;;;;;7.18;1.25;;;12.60;99.90;;;;;;5075060;28;20127;-72
2022/12/31 09:35:23;;;;;;;3.28;0.70;;;12.60;99.90;;;;;;5055379;28;20403;-73
2022/12/31 09:37:55;;;;;;;4.63;0.80;;;12.60;99.90;;;;;;5075235;28;20047;-74
2022/12/31 09:40:52;;;;;;;5.82;0.70;;;12.60;99.90;;;;;;5074297;28;20052;-76
2022/12/31 09:43:52;;;;;;;4.65;0.65;;;12.60;99.90;;;;;;5058385;28;20095;-75
2022/12/31 09:46:57;;;;;;;4.22;0.77;;;12.60;99.90;;;;;;5075283;28;20140;-76
2022/12/31 09:50:01;;;;;;;2.17;0.50;;;12.60;99.90;;;;;;5074508;28;20488;-74
2022/12/31 09:52:50;;;;;;;4.67;0.57;;;12.60;99.90;;;;;;5073928;28;20070;-77
2022/12/31 09:55:37;;;;;;;2.83;0.60;;;12.60;99.90;;;;;;5075160;28;20294;-74
2022/12/31 09:58:10;;;;;;;3.88;0.50;;;12.60;99.90;;;;;;5074911;28;20047;-74
2022/12/31 10:00:52;;;;;;;4.22;0.60;;;12.70;99.90;;;;;;5075123;28;20045;-73
2022/12/31 10:03:30;;;;;;;2.38;0.65;;;12.70;99.90;;;;;;5074680;28;20148;-76
2022/12/31 10:06:23;;;;;;;3.83;0.57;;;12.80;99.90;;;;;;5058748;28;20044;-74
2022/12/31 10:09:10;;;;;;;7.20;0.82;;;12.80;99.90;;;;;;5075105;28;20049;-78
2022/12/31 10:12:14;;;;;;;6.57;0.90;;;13.00;99.90;;;;;;5073762;28;20087;-76
2022/12/31 10:15:13;;;;;;;3.95;1.00;;;13.10;99.90;;;;;;5074510;28;20045;-76
2022/12/31 10:17:48;;;;;;;6.03;1.20;;;13.20;99.90;;;;;;5075051;28;20101;-75
2022/12/31 10:20:20;;;;;;;2.88;0.88;;;13.30;99.90;;;;;;5075537;28;20041;-77
2022/12/31 10:23:14;;;;;;;6.75;1.20;;;13.20;99.90;;;;;;5075492;28;20103;-77
2022/12/31 10:25:55;;;;;;;2.85;0.82;;;13.30;99.90;;;;;;5074409;28;20052;-75
2022/12/31 10:28:38;;;;;;;5.93;1.10;;;13.30;99.90;;;;;;5073565;28;20044;-77
2022/12/31 10:31:44;;;;;;;7.05;1.10;;;13.30;99.90;;;;;;5057139;28;20047;-76
2022/12/31 10:34:52;;;;;;;3.83;1.33;;;13.30;99.90;;;;;;5071815;28;20083;-76
2022/12/31 10:37:24;;;;;;;5.70;1.30;;;13.40;99.90;;;;;;5071796;28;20147;-77
2022/12/31 10:39:55;;;;;;;5.57;1.58;;;13.30;99.90;;;;;;5074847;28;20400;-77
2022/12/31 10:42:38;;;;;;;5.88;1.50;;;13.30;99.90;;;;;;5073152;28;20451;-79
2022/12/31 10:45:25;;;;;;;6.63;1.55;;;13.40;99.90;;;;;;5074647;28;20087;-76
2022/12/31 10:47:59;;;;;;;;;;;13.40;99.90;;;;;;5073825;28;20045;-74
2022/12/31 10:50:42;;;;;;;6.35;1.60;;;13.40;99.90;;;;;;5074963;28;19959;-77
2022/12/31 10:53:58;;;;;;;6.65;1.77;;;13.40;99.90;;;;;;5075093;28;20446;-75
2022/12/31 10:56:42;;;;;;;7.85;1.60;;;13.50;99.90;;;;;;5057324;28;20063;-79
2022/12/31 10:59:26;;;;;;;12.30;1.92;;;13.50;99.90;;;;;;5075783;28;20048;-78
2022/12/31 11:02:21;;;;;;;8.63;1.80;;;13.50;99.90;;;;;;5108150;28;20501;-76
2022/12/31 11:05:10;;;;;;;10.52;1.52;;;13.50;99.90;;;;;;5072884;28;20056;-75
2022/12/31 11:08:07;;;;;;;8.05;1.50;;;13.50;99.90;;;;;;5073532;28;20080;-75
2022/12/31 11:10:51;;;;;;;11.13;1.75;;;13.50;99.90;;;;;;5074289;28;20473;-75
2022/12/31 11:13:55;;;;;;;6.28;1.35;;;13.40;99.90;;;;;;5073210;28;20040;-76
2022/12/31 11:16:24;;;;;;;7.75;1.63;;;13.50;99.90;;;;;;5057093;28;20353;-78
2022/12/31 11:19:00;;;;;;;7.05;1.90;;;13.50;99.90;;;;;;5073419;28;20044;-76
2022/12/31 11:21:26;;;;;;;5.25;1.48;;;13.40;99.90;;;;;;5073059;28;20040;-76
2022/12/31 11:24:04;;;;;;;6.70;1.65;;;13.40;99.90;;;;;;5056348;28;20054;-75
2022/12/31 11:26:51;;;;;;;6.03;1.80;;;13.40;99.90;;;;;;5072766;28;20131;-76
2022/12/31 11:29:41;;;;;;;12.32;2.55;;;13.50;99.90;;;;;;5073324;28;20419;-74
2022/12/31 11:32:37;;;;;;;13.55;2.30;;;13.50;99.90;;;;;;5055256;28;20032;-74
2022/12/31 11:35:21;;;;;;;9.77;2.80;;;13.50;99.90;;;;;;5056099;28;20516;-76
2022/12/31 11:37:49;;;;;;;11.38;3.05;;;13.60;99.90;;;;;;5073975;28;20424;-75
2022/12/31 11:40:35;;;;;;;11.50;3.25;;;13.60;99.90;;;;;;5073475;28;20108;-79
2022/12/31 11:43:25;;;;;;;11.63;3.50;;;13.70;99.90;;;;;;5073432;28;20075;-76
2022/12/31 11:46:39;;;;;;;10.65;3.72;;;13.70;99.90;;;;;;5072156;28;20070;-77
2022/12/31 11:49:37;;;;;;;29.88;11.80;;;13.70;99.90;;;;;;5070596;28;20052;-76
2022/12/31 11:52:40;;;;;;;33.72;11.63;;;13.70;99.90;;;;;;5073121;28;20094;-75
2022/12/31 11:55:44;;;;;;;23.15;8.50;;;13.80;99.90;;;;;;5071992;28;20045;-78
2022/12/31 11:58:14;;;;;;;38.75;15.60;;;13.80;99.90;;;;;;5071034;28;20083;-74
2022/12/31 12:00:49;;;;;;;10.23;4.50;;;13.80;99.90;;;;;;5055497;28;20048;-77
2022/12/31 12:03:15;;;;;;;14.82;3.58;;;13.80;99.90;;;;;;5071834;28;20536;-73
2022/12/31 12:05:40;;;;;;;22.98;8.77;;;13.80;99.90;;;;;;5055529;28;20094;-77
2022/12/31 12:08:06;;;;;;;13.95;4.95;;;13.80;99.90;;;;;;5073023;28;20048;-74
2022/12/31 12:10:32;;;;;;;10.80;4.53;;;13.80;99.90;;;;;;5072428;28;20488;-77
2022/12/31 12:12:58;;;;;;;14.88;4.40;;;13.80;99.90;;;;;;5071756;28;20060;-75
2022/12/31 12:15:32;;;;;;;11.13;4.70;;;13.70;99.90;;;;;;5071508;28;20507;-76
2022/12/31 12:18:03;;;;;;;11.95;4.28;;;13.80;99.90;;;;;;5073180;28;20281;-76
2022/12/31 12:20:36;;;;;;;14.00;3.83;;;13.80;99.90;;;;;;5072585;28;20481;-73
2022/12/31 12:23:23;;;;;;;7.55;3.15;;;13.80;99.90;;;;;;5072797;28;20048;-73
2022/12/31 12:25:49;;;;;;;12.35;3.42;;;13.90;99.90;;;;;;5072804;28;20054;-73
2022/12/31 12:28:24;;;;;;;11.70;3.53;;;13.80;99.90;;;;;;5071549;28;20052;-74
2022/12/31 12:30:59;;;;;;;8.23;3.08;;;13.70;99.90;;;;;;5073245;28;20041;-75
2022/12/31 12:33:28;;;;;;;15.07;4.22;;;13.70;99.90;;;;;;5072723;28;20044;-74
2022/12/31 12:36:12;;;;;;;16.77;3.75;;;13.70;99.90;;;;;;5055736;28;20053;-74
2022/12/31 12:38:39;;;;;;;13.40;3.80;;;13.60;99.90;;;;;;5076274;28;20052;-73
2022/12/31 12:41:09;;;;;;;17.57;3.40;;;13.60;99.90;;;;;;5075164;28;20485;-71
2022/12/31 12:43:38;;;;;;;9.63;2.13;;;13.50;99.90;;;;;;5076674;28;20279;-72
2022/12/31 12:46:17;;;;;;;13.20;2.65;;;13.50;99.90;;;;;;5058609;28;20053;-72
2022/12/31 12:48:46;;;;;;;12.75;3.85;;;13.60;99.90;;;;;;5076889;28;20044;-72
2022/12/31 12:51:46;;;;;;;14.60;5.22;;;13.50;99.90;;;;;;5074723;28;20075;-72
2022/12/31 12:54:15;;;;;;;12.10;4.20;;;13.50;99.90;;;;;;5075467;28;20139;-71
2022/12/31 12:56:46;;;;;;;12.02;3.40;;;13.50;99.90;;;;;;5076023;28;20089;-72
2022/12/31 12:59:48;;;;;;;12.52;2.60;;;13.50;99.90;;;;;;5076074;28;20040;-72
2022/12/31 13:02:32;;;;;;;12.95;3.55;;;13.50;99.90;;;;;;5076667;28;20040;-70
2022/12/31 13:05:00;;;;;;;12.75;4.90;;;13.50;99.90;;;;;;5075663;28;20044;-72
2022/12/31 13:07:40;;;;;;;11.70;4.40;;;13.30;99.90;;;;;;5075666;28;20043;-73
2022/12/31 13:10:18;;;;;;;17.35;5.57;;;13.30;99.90;;;;;;5074991;28;20048;-72
2022/12/31 13:12:52;;;;;;;20.50;5.22;;;13.40;99.90;;;;;;5074975;28;20043;-73
2022/12/31 13:15:39;;;;;;;14.48;4.82;;;13.30;99.90;;;;;;5076181;28;20040;-74
2022/12/31 13:18:17;;;;;;;;;;;13.30;99.90;;;;;;5076158;28;20123;-73
2022/12/31 13:21:20;;;;;;;14.52;4.97;;;13.30;99.90;;;;;;5075610;28;19920;-73
2022/12/31 13:23:49;;;;;;;40.92;13.75;;;13.20;99.90;;;;;;5060277;28;20064;-73
2022/12/31 13:26:31;;;;;;;10.80;2.78;;;13.20;99.90;;;;;;5075681;28;20050;-73
2022/12/31 13:28:59;;;;;;;11.63;2.80;;;13.20;99.90;;;;;;5074859;28;20113;-76
2022/12/31 13:31:30;;;;;;;13.57;3.50;;;13.10;99.90;;;;;;5074020;28;20365;-74